Terminal Aerodrome Forecast
Issued by NWS

Home | Current Version | Previous Version | Text Only | Print | Product List | Glossary On
Versions: 1 2 3 4 5 6 7 8 9 10 11 12 13 14 15 16 17 18 19 20
000
FTUS45 KTFX 291758 AAA
TAFGTF
TAF AMD
KGTF 291758Z 2918/3018 19015G22KT 4SM FU BKN150
     FM292200 22020G27KT P6SM SCT100 BKN250
     FM300300 28010KT 4SM FU BKN100 PROB30 3006/3012 -SHRA BKN080
     FM301700 23014KT 6SM FU FEW100=

USA.gov is the U.S. government's official web portal to all federal, state and local government web resources and services.